sensor_id;sensor_type;location;lat;lon;timestamp;P1;durP1;ratioP1;P2;durP2;ratioP2
26151;SDS011;13907;53.154;8.202;2022-12-19T11:14:30;7.80;;;5.63;;
26151;SDS011;13907;53.154;8.202;2022-12-19T11:16:57;5.20;;;4.30;;
26151;SDS011;13907;53.154;8.202;2022-12-19T11:19:29;4.37;;;3.77;;
26151;SDS011;13907;53.154;8.202;2022-12-19T11:21:57;4.60;;;3.40;;
26151;SDS011;13907;53.154;8.202;2022-12-19T11:24:27;4.63;;;3.77;;
26151;SDS011;13907;53.154;8.202;2022-12-19T11:26:55;4.83;;;3.63;;
26151;SDS011;13907;53.154;8.202;2022-12-19T11:29:22;5.37;;;3.93;;
26151;SDS011;13907;53.154;8.202;2022-12-19T11:31:55;5.07;;;4.53;;
26151;SDS011;13907;53.154;8.202;2022-12-19T11:34:23;4.07;;;3.60;;
26151;SDS011;13907;53.154;8.202;2022-12-19T11:36:51;4.90;;;3.33;;
26151;SDS011;13907;53.154;8.202;2022-12-19T11:39:20;6.80;;;4.63;;
26151;SDS011;13907;53.154;8.202;2022-12-19T11:41:49;5.37;;;4.03;;
26151;SDS011;13907;53.154;8.202;2022-12-19T11:44:21;4.40;;;3.53;;
26151;SDS011;13907;53.154;8.202;2022-12-19T11:46:52;3.83;;;3.43;;
26151;SDS011;13907;53.154;8.202;2022-12-19T11:49:24;4.30;;;3.33;;
26151;SDS011;13907;53.154;8.202;2022-12-19T11:51:53;5.17;;;4.10;;
26151;SDS011;13907;53.154;8.202;2022-12-19T11:54:23;9.80;;;3.73;;
26151;SDS011;13907;53.154;8.202;2022-12-19T11:56:51;4.83;;;3.40;;
26151;SDS011;13907;53.154;8.202;2022-12-19T11:59:19;3.50;;;2.93;;
26151;SDS011;13907;53.154;8.202;2022-12-19T12:01:51;5.53;;;4.00;;
26151;SDS011;13907;53.154;8.202;2022-12-19T12:07:08;4.73;;;3.40;;
26151;SDS011;13907;53.154;8.202;2022-12-19T12:09:37;5.37;;;4.23;;
26151;SDS011;13907;53.154;8.202;2022-12-19T12:12:11;5.17;;;4.20;;
26151;SDS011;13907;53.154;8.202;2022-12-19T12:14:43;4.60;;;4.17;;
26151;SDS011;13907;53.154;8.202;2022-12-19T12:17:19;3.77;;;3.40;;
26151;SDS011;13907;53.154;8.202;2022-12-19T12:19:55;6.17;;;4.10;;
26151;SDS011;13907;53.154;8.202;2022-12-19T12:22:32;4.27;;;3.70;;
26151;SDS011;13907;53.154;8.202;2022-12-19T12:25:04;3.40;;;3.07;;
26151;SDS011;13907;53.154;8.202;2022-12-19T12:27:39;4.30;;;3.57;;
26151;SDS011;13907;53.154;8.202;2022-12-19T12:30:09;3.93;;;2.63;;
26151;SDS011;13907;53.154;8.202;2022-12-19T12:32:41;4.23;;;3.17;;
26151;SDS011;13907;53.154;8.202;2022-12-19T12:35:17;3.63;;;3.33;;
26151;SDS011;13907;53.154;8.202;2022-12-19T12:40:55;4.57;;;3.33;;
26151;SDS011;13907;53.154;8.202;2022-12-19T12:43:29;4.73;;;3.33;;
26151;SDS011;13907;53.154;8.202;2022-12-19T12:45:59;3.40;;;3.17;;
26151;SDS011;13907;53.154;8.202;2022-12-19T12:48:29;5.50;;;4.30;;
26151;SDS011;13907;53.154;8.202;2022-12-19T12:50:57;5.90;;;4.07;;
26151;SDS011;13907;53.154;8.202;2022-12-19T12:53:27;5.93;;;3.77;;
26151;SDS011;13907;53.154;8.202;2022-12-19T12:55:56;7.70;;;4.50;;
26151;SDS011;13907;53.154;8.202;2022-12-19T13:01:31;4.27;;;3.77;;
26151;SDS011;13907;53.154;8.202;2022-12-19T13:04:00;3.53;;;3.00;;
26151;SDS011;13907;53.154;8.202;2022-12-19T13:06:31;6.73;;;4.93;;
26151;SDS011;13907;53.154;8.202;2022-12-19T13:09:00;4.03;;;3.37;;
26151;SDS011;13907;53.154;8.202;2022-12-19T13:11:35;4.43;;;3.73;;
26151;SDS011;13907;53.154;8.202;2022-12-19T13:17:19;7.23;;;3.93;;
26151;SDS011;13907;53.154;8.202;2022-12-19T13:19:53;4.23;;;3.77;;
26151;SDS011;13907;53.154;8.202;2022-12-19T13:22:22;9.73;;;4.53;;
26151;SDS011;13907;53.154;8.202;2022-12-19T13:25:10;6.97;;;4.57;;
26151;SDS011;13907;53.154;8.202;2022-12-19T13:27:56;4.77;;;3.93;;
26151;SDS011;13907;53.154;8.202;2022-12-19T13:30:23;6.13;;;4.10;;
26151;SDS011;13907;53.154;8.202;2022-12-19T13:33:07;6.93;;;3.87;;
26151;SDS011;13907;53.154;8.202;2022-12-19T13:35:35;5.90;;;4.33;;
26151;SDS011;13907;53.154;8.202;2022-12-19T13:38:05;6.67;;;5.23;;
26151;SDS011;13907;53.154;8.202;2022-12-19T13:40:50;6.77;;;4.10;;
26151;SDS011;13907;53.154;8.202;2022-12-19T13:43:22;5.50;;;3.80;;
26151;SDS011;13907;53.154;8.202;2022-12-19T13:46:17;5.57;;;4.13;;
26151;SDS011;13907;53.154;8.202;2022-12-19T13:48:47;5.03;;;4.10;;
26151;SDS011;13907;53.154;8.202;2022-12-19T13:51:15;5.37;;;4.43;;
26151;SDS011;13907;53.154;8.202;2022-12-19T13:53:42;5.40;;;4.90;;
26151;SDS011;13907;53.154;8.202;2022-12-19T13:56:11;7.50;;;4.40;;
26151;SDS011;13907;53.154;8.202;2022-12-19T13:58:41;5.10;;;3.90;;
26151;SDS011;13907;53.154;8.202;2022-12-19T14:01:13;6.03;;;4.40;;
26151;SDS011;13907;53.154;8.202;2022-12-19T14:03:42;7.40;;;4.03;;
26151;SDS011;13907;53.154;8.202;2022-12-19T14:06:15;4.47;;;4.07;;
26151;SDS011;13907;53.154;8.202;2022-12-19T14:08:44;5.43;;;3.37;;
26151;SDS011;13907;53.154;8.202;2022-12-19T14:11:12;4.03;;;3.63;;
26151;SDS011;13907;53.154;8.202;2022-12-19T14:13:44;6.47;;;4.03;;
26151;SDS011;13907;53.154;8.202;2022-12-19T14:16:30;4.13;;;3.37;;
26151;SDS011;13907;53.154;8.202;2022-12-19T14:18:57;9.73;;;3.50;;
26151;SDS011;13907;53.154;8.202;2022-12-19T14:21:25;7.47;;;4.63;;
26151;SDS011;13907;53.154;8.202;2022-12-19T14:24:07;4.93;;;3.67;;
26151;SDS011;13907;53.154;8.202;2022-12-19T14:31:39;5.13;;;3.77;;
26151;SDS011;13907;53.154;8.202;2022-12-19T14:34:08;4.40;;;3.63;;
26151;SDS011;13907;53.154;8.202;2022-12-19T14:36:41;7.83;;;5.03;;
26151;SDS011;13907;53.154;8.202;2022-12-19T14:39:14;4.13;;;3.63;;
26151;SDS011;13907;53.154;8.202;2022-12-19T14:41:42;6.07;;;3.53;;
26151;SDS011;13907;53.154;8.202;2022-12-19T14:44:41;4.57;;;4.07;;
26151;SDS011;13907;53.154;8.202;2022-12-19T14:47:20;5.87;;;4.53;;
26151;SDS011;13907;53.154;8.202;2022-12-19T14:49:49;6.53;;;3.57;;
26151;SDS011;13907;53.154;8.202;2022-12-19T14:52:32;4.50;;;3.73;;
26151;SDS011;13907;53.154;8.202;2022-12-19T14:55:12;5.67;;;3.47;;
26151;SDS011;13907;53.154;8.202;2022-12-19T14:57:41;3.67;;;3.37;;
26151;SDS011;13907;53.154;8.202;2022-12-19T15:00:22;4.67;;;3.27;;
26151;SDS011;13907;53.154;8.202;2022-12-19T15:02:51;5.93;;;3.67;;
26151;SDS011;13907;53.154;8.202;2022-12-19T15:05:19;6.07;;;4.17;;
26151;SDS011;13907;53.154;8.202;2022-12-19T15:07:46;4.20;;;3.30;;
26151;SDS011;13907;53.154;8.202;2022-12-19T15:10:15;4.37;;;3.50;;
26151;SDS011;13907;53.154;8.202;2022-12-19T15:12:47;5.00;;;4.00;;
26151;SDS011;13907;53.154;8.202;2022-12-19T15:15:37;5.90;;;3.17;;
26151;SDS011;13907;53.154;8.202;2022-12-19T15:18:17;3.47;;;3.00;;
26151;SDS011;13907;53.154;8.202;2022-12-19T15:23:42;3.80;;;3.50;;
26151;SDS011;13907;53.154;8.202;2022-12-19T15:26:10;3.70;;;3.20;;
26151;SDS011;13907;53.154;8.202;2022-12-19T15:28:38;6.10;;;4.20;;
26151;SDS011;13907;53.154;8.202;2022-12-19T15:31:10;8.87;;;3.73;;
26151;SDS011;13907;53.154;8.202;2022-12-19T15:33:40;3.40;;;2.93;;
26151;SDS011;13907;53.154;8.202;2022-12-19T15:36:08;3.97;;;3.37;;
26151;SDS011;13907;53.154;8.202;2022-12-19T15:38:35;4.43;;;3.57;;
26151;SDS011;13907;53.154;8.202;2022-12-19T15:41:02;4.93;;;3.07;;
26151;SDS011;13907;53.154;8.202;2022-12-19T15:43:29;4.40;;;3.53;;
26151;SDS011;13907;53.154;8.202;2022-12-19T15:45:57;3.40;;;2.30;;
26151;SDS011;13907;53.154;8.202;2022-12-19T15:48:24;2.87;;;2.57;;
26151;SDS011;13907;53.154;8.202;2022-12-19T15:50:53;3.53;;;3.23;;
26151;SDS011;13907;53.154;8.202;2022-12-19T15:53:20;4.10;;;3.70;;
26151;SDS011;13907;53.154;8.202;2022-12-19T15:55:48;3.30;;;2.90;;
26151;SDS011;13907;53.154;8.202;2022-12-19T15:58:15;4.53;;;3.57;;
26151;SDS011;13907;53.154;8.202;2022-12-19T16:00:46;4.87;;;3.40;;
26151;SDS011;13907;53.154;8.202;2022-12-19T16:03:14;3.90;;;3.23;;
26151;SDS011;13907;53.154;8.202;2022-12-19T16:05:41;4.90;;;3.27;;
26151;SDS011;13907;53.154;8.202;2022-12-19T16:08:11;3.50;;;3.20;;
26151;SDS011;13907;53.154;8.202;2022-12-19T16:10:38;3.53;;;3.07;;
26151;SDS011;13907;53.154;8.202;2022-12-19T16:13:08;3.63;;;2.83;;
26151;SDS011;13907;53.154;8.202;2022-12-19T16:15:40;4.20;;;3.00;;
26151;SDS011;13907;53.154;8.202;2022-12-19T16:18:08;5.87;;;4.03;;
26151;SDS011;13907;53.154;8.202;2022-12-19T16:20:37;3.50;;;2.90;;
26151;SDS011;13907;53.154;8.202;2022-12-19T16:23:05;3.70;;;3.30;;
26151;SDS011;13907;53.154;8.202;2022-12-19T16:25:36;4.40;;;2.90;;
26151;SDS011;13907;53.154;8.202;2022-12-19T16:28:05;3.83;;;3.00;;
26151;SDS011;13907;53.154;8.202;2022-12-19T16:30:33;10.07;;;2.77;;
26151;SDS011;13907;53.154;8.202;2022-12-19T16:33:00;3.20;;;2.33;;
26151;SDS011;13907;53.154;8.202;2022-12-19T16:35:28;5.27;;;3.20;;
26151;SDS011;13907;53.154;8.202;2022-12-19T16:37:55;4.03;;;2.80;;
26151;SDS011;13907;53.154;8.202;2022-12-19T16:40:23;5.93;;;3.80;;
26151;SDS011;13907;53.154;8.202;2022-12-19T16:42:56;13.47;;;4.90;;
26151;SDS011;13907;53.154;8.202;2022-12-19T16:45:25;3.90;;;3.57;;
26151;SDS011;13907;53.154;8.202;2022-12-19T16:47:52;8.47;;;2.93;;
26151;SDS011;13907;53.154;8.202;2022-12-19T16:50:20;3.33;;;2.97;;
26151;SDS011;13907;53.154;8.202;2022-12-19T16:52:48;2.60;;;2.40;;
26151;SDS011;13907;53.154;8.202;2022-12-19T16:55:15;2.93;;;2.53;;
26151;SDS011;13907;53.154;8.202;2022-12-19T16:57:43;4.00;;;3.40;;
26151;SDS011;13907;53.154;8.202;2022-12-19T17:00:13;3.70;;;2.97;;
26151;SDS011;13907;53.154;8.202;2022-12-19T17:02:42;3.37;;;3.07;;
26151;SDS011;13907;53.154;8.202;2022-12-19T17:05:13;3.27;;;2.93;;
26151;SDS011;13907;53.154;8.202;2022-12-19T17:07:41;5.53;;;3.77;;
26151;SDS011;13907;53.154;8.202;2022-12-19T17:10:08;4.13;;;2.93;;
26151;SDS011;13907;53.154;8.202;2022-12-19T17:12:36;5.63;;;3.60;;
26151;SDS011;13907;53.154;8.202;2022-12-19T17:15:04;5.23;;;3.00;;
26151;SDS011;13907;53.154;8.202;2022-12-19T17:17:34;8.30;;;3.63;;
26151;SDS011;13907;53.154;8.202;2022-12-19T17:20:01;3.13;;;2.77;;
26151;SDS011;13907;53.154;8.202;2022-12-19T17:22:28;3.67;;;3.27;;
26151;SDS011;13907;53.154;8.202;2022-12-19T17:24:55;3.00;;;2.63;;
26151;SDS011;13907;53.154;8.202;2022-12-19T17:27:22;4.77;;;3.60;;
26151;SDS011;13907;53.154;8.202;2022-12-19T17:29:50;3.93;;;2.90;;
26151;SDS011;13907;53.154;8.202;2022-12-19T17:32:17;4.67;;;3.30;;
26151;SDS011;13907;53.154;8.202;2022-12-19T17:34:45;5.17;;;3.60;;
26151;SDS011;13907;53.154;8.202;2022-12-19T17:52:17;3.73;;;2.70;;
26151;SDS011;13907;53.154;8.202;2022-12-19T17:54:45;4.27;;;2.97;;
26151;SDS011;13907;53.154;8.202;2022-12-19T17:57:12;4.67;;;3.67;;
26151;SDS011;13907;53.154;8.202;2022-12-19T17:59:40;4.17;;;3.07;;
26151;SDS011;13907;53.154;8.202;2022-12-19T18:02:13;6.43;;;3.27;;
26151;SDS011;13907;53.154;8.202;2022-12-19T18:04:43;4.47;;;3.53;;
26151;SDS011;13907;53.154;8.202;2022-12-19T18:07:10;4.90;;;3.50;;
26151;SDS011;13907;53.154;8.202;2022-12-19T18:09:40;6.40;;;3.37;;
26151;SDS011;13907;53.154;8.202;2022-12-19T18:12:08;5.13;;;3.20;;
26151;SDS011;13907;53.154;8.202;2022-12-19T18:14:36;4.37;;;3.50;;
26151;SDS011;13907;53.154;8.202;2022-12-19T18:17:03;7.17;;;4.30;;
26151;SDS011;13907;53.154;8.202;2022-12-19T18:19:31;3.90;;;3.00;;
26151;SDS011;13907;53.154;8.202;2022-12-19T18:21:58;5.20;;;4.03;;
26151;SDS011;13907;53.154;8.202;2022-12-19T18:24:25;3.70;;;2.67;;
26151;SDS011;13907;53.154;8.202;2022-12-19T18:26:54;4.57;;;2.80;;
26151;SDS011;13907;53.154;8.202;2022-12-19T18:29:21;8.67;;;3.47;;
26151;SDS011;13907;53.154;8.202;2022-12-19T18:31:49;2.90;;;2.60;;
26151;SDS011;13907;53.154;8.202;2022-12-19T18:34:17;5.90;;;3.07;;
26151;SDS011;13907;53.154;8.202;2022-12-19T18:36:44;3.30;;;2.90;;
26151;SDS011;13907;53.154;8.202;2022-12-19T18:39:17;5.57;;;3.53;;
26151;SDS011;13907;53.154;8.202;2022-12-19T18:41:44;3.20;;;2.90;;
26151;SDS011;13907;53.154;8.202;2022-12-19T18:44:13;4.50;;;2.90;;
26151;SDS011;13907;53.154;8.202;2022-12-19T18:46:40;3.47;;;3.17;;
26151;SDS011;13907;53.154;8.202;2022-12-19T18:49:09;4.67;;;4.23;;
26151;SDS011;13907;53.154;8.202;2022-12-19T18:51:37;3.63;;;3.07;;
26151;SDS011;13907;53.154;8.202;2022-12-19T18:54:08;3.60;;;3.23;;
26151;SDS011;13907;53.154;8.202;2022-12-19T18:56:37;3.07;;;2.63;;
26151;SDS011;13907;53.154;8.202;2022-12-19T18:59:04;4.03;;;3.13;;
26151;SDS011;13907;53.154;8.202;2022-12-19T19:04:36;3.63;;;2.87;;
26151;SDS011;13907;53.154;8.202;2022-12-19T19:10:13;6.27;;;2.97;;
26151;SDS011;13907;53.154;8.202;2022-12-19T19:12:41;4.77;;;2.53;;
26151;SDS011;13907;53.154;8.202;2022-12-19T19:15:08;4.00;;;2.53;;
26151;SDS011;13907;53.154;8.202;2022-12-19T19:17:35;5.40;;;3.10;;
26151;SDS011;13907;53.154;8.202;2022-12-19T19:23:09;2.63;;;2.30;;
26151;SDS011;13907;53.154;8.202;2022-12-19T19:28:35;4.00;;;2.63;;
26151;SDS011;13907;53.154;8.202;2022-12-19T19:31:04;3.37;;;3.07;;
26151;SDS011;13907;53.154;8.202;2022-12-19T19:33:32;3.63;;;2.97;;
26151;SDS011;13907;53.154;8.202;2022-12-19T19:36:02;4.37;;;3.10;;
26151;SDS011;13907;53.154;8.202;2022-12-19T19:41:16;2.60;;;2.40;;
26151;SDS011;13907;53.154;8.202;2022-12-19T19:43:43;2.70;;;2.43;;
26151;SDS011;13907;53.154;8.202;2022-12-19T19:46:10;2.33;;;2.13;;
26151;SDS011;13907;53.154;8.202;2022-12-19T19:48:37;3.50;;;2.60;;
26151;SDS011;13907;53.154;8.202;2022-12-19T19:51:06;2.97;;;2.30;;
26151;SDS011;13907;53.154;8.202;2022-12-19T19:53:33;2.40;;;2.20;;
26151;SDS011;13907;53.154;8.202;2022-12-19T19:56:01;4.57;;;3.20;;
26151;SDS011;13907;53.154;8.202;2022-12-19T19:58:30;3.27;;;2.70;;
26151;SDS011;13907;53.154;8.202;2022-12-19T20:00:57;2.70;;;2.50;;
26151;SDS011;13907;53.154;8.202;2022-12-19T20:03:24;2.17;;;1.97;;
26151;SDS011;13907;53.154;8.202;2022-12-19T20:05:56;3.53;;;2.47;;
26151;SDS011;13907;53.154;8.202;2022-12-19T20:08:24;4.47;;;2.77;;
26151;SDS011;13907;53.154;8.202;2022-12-19T20:10:52;3.90;;;2.13;;
26151;SDS011;13907;53.154;8.202;2022-12-19T20:13:19;2.50;;;2.30;;
26151;SDS011;13907;53.154;8.202;2022-12-19T20:15:48;2.10;;;1.90;;
26151;SDS011;13907;53.154;8.202;2022-12-19T20:18:15;4.57;;;2.83;;
26151;SDS011;13907;53.154;8.202;2022-12-19T20:20:42;3.13;;;2.80;;
26151;SDS011;13907;53.154;8.202;2022-12-19T20:23:09;2.33;;;2.13;;
26151;SDS011;13907;53.154;8.202;2022-12-19T20:25:36;3.53;;;3.23;;
26151;SDS011;13907;53.154;8.202;2022-12-19T20:28:07;4.33;;;2.23;;
26151;SDS011;13907;53.154;8.202;2022-12-19T20:30:35;4.47;;;2.53;;
26151;SDS011;13907;53.154;8.202;2022-12-19T20:33:04;2.63;;;2.37;;
26151;SDS011;13907;53.154;8.202;2022-12-19T20:35:31;1.93;;;1.83;;
26151;SDS011;13907;53.154;8.202;2022-12-19T20:37:58;2.80;;;2.60;;
26151;SDS011;13907;53.154;8.202;2022-12-19T20:40:25;2.50;;;2.30;;
26151;SDS011;13907;53.154;8.202;2022-12-19T20:42:53;3.67;;;2.47;;
26151;SDS011;13907;53.154;8.202;2022-12-19T20:45:20;2.40;;;2.17;;
26151;SDS011;13907;53.154;8.202;2022-12-19T20:47:47;7.40;;;3.60;;
26151;SDS011;13907;53.154;8.202;2022-12-19T20:50:15;4.23;;;2.77;;
26151;SDS011;13907;53.154;8.202;2022-12-19T20:52:43;4.40;;;2.23;;
26151;SDS011;13907;53.154;8.202;2022-12-19T20:58:13;2.03;;;1.80;;
26151;SDS011;13907;53.154;8.202;2022-12-19T21:00:40;3.47;;;2.00;;
26151;SDS011;13907;53.154;8.202;2022-12-19T21:03:07;3.13;;;2.33;;
26151;SDS011;13907;53.154;8.202;2022-12-19T21:05:35;5.37;;;2.60;;
26151;SDS011;13907;53.154;8.202;2022-12-19T21:08:03;2.37;;;2.17;;
26151;SDS011;13907;53.154;8.202;2022-12-19T21:10:30;3.30;;;2.47;;
26151;SDS011;13907;53.154;8.202;2022-12-19T21:12:57;4.03;;;2.93;;
26151;SDS011;13907;53.154;8.202;2022-12-19T21:15:24;4.27;;;2.93;;
26151;SDS011;13907;53.154;8.202;2022-12-19T21:17:51;2.20;;;2.00;;
26151;SDS011;13907;53.154;8.202;2022-12-19T21:20:18;2.90;;;2.60;;
26151;SDS011;13907;53.154;8.202;2022-12-19T21:22:47;3.03;;;2.37;;
26151;SDS011;13907;53.154;8.202;2022-12-19T21:25:14;3.03;;;2.00;;
26151;SDS011;13907;53.154;8.202;2022-12-19T21:27:41;5.03;;;2.70;;
26151;SDS011;13907;53.154;8.202;2022-12-19T21:30:11;4.00;;;2.13;;
26151;SDS011;13907;53.154;8.202;2022-12-19T21:32:38;2.93;;;2.63;;
26151;SDS011;13907;53.154;8.202;2022-12-19T21:35:05;2.33;;;2.13;;
26151;SDS011;13907;53.154;8.202;2022-12-19T21:37:32;2.60;;;2.37;;
26151;SDS011;13907;53.154;8.202;2022-12-19T21:40:01;3.17;;;2.37;;
26151;SDS011;13907;53.154;8.202;2022-12-19T21:42:28;5.67;;;2.53;;
26151;SDS011;13907;53.154;8.202;2022-12-19T21:44:55;4.17;;;1.90;;
26151;SDS011;13907;53.154;8.202;2022-12-19T21:47:22;3.63;;;2.33;;
26151;SDS011;13907;53.154;8.202;2022-12-19T21:49:49;4.77;;;2.73;;
26151;SDS011;13907;53.154;8.202;2022-12-19T21:52:16;2.43;;;2.23;;
26151;SDS011;13907;53.154;8.202;2022-12-19T21:54:44;2.43;;;2.07;;
26151;SDS011;13907;53.154;8.202;2022-12-19T21:57:12;2.47;;;2.00;;
26151;SDS011;13907;53.154;8.202;2022-12-19T21:59:39;4.47;;;2.50;;
26151;SDS011;13907;53.154;8.202;2022-12-19T22:02:07;2.23;;;2.03;;
26151;SDS011;13907;53.154;8.202;2022-12-19T22:04:34;4.00;;;1.90;;
26151;SDS011;13907;53.154;8.202;2022-12-19T22:07:03;2.97;;;1.90;;
26151;SDS011;13907;53.154;8.202;2022-12-19T22:09:30;2.40;;;2.20;;
26151;SDS011;13907;53.154;8.202;2022-12-19T22:11:57;2.13;;;1.77;;
26151;SDS011;13907;53.154;8.202;2022-12-19T22:14:25;4.60;;;2.43;;
26151;SDS011;13907;53.154;8.202;2022-12-19T22:16:52;2.07;;;1.90;;
26151;SDS011;13907;53.154;8.202;2022-12-19T22:19:19;2.60;;;2.40;;
26151;SDS011;13907;53.154;8.202;2022-12-19T22:21:47;3.63;;;2.10;;
26151;SDS011;13907;53.154;8.202;2022-12-19T22:24:14;3.37;;;2.20;;
26151;SDS011;13907;53.154;8.202;2022-12-19T22:26:41;2.10;;;1.93;;
26151;SDS011;13907;53.154;8.202;2022-12-19T22:29:09;3.33;;;2.17;;
26151;SDS011;13907;53.154;8.202;2022-12-19T22:31:38;3.00;;;1.80;;
26151;SDS011;13907;53.154;8.202;2022-12-19T22:34:05;3.50;;;2.27;;
26151;SDS011;13907;53.154;8.202;2022-12-19T22:36:33;2.50;;;2.00;;
26151;SDS011;13907;53.154;8.202;2022-12-19T22:39:01;1.70;;;1.60;;
26151;SDS011;13907;53.154;8.202;2022-12-19T22:41:30;2.03;;;1.70;;
26151;SDS011;13907;53.154;8.202;2022-12-19T22:43:57;5.17;;;2.50;;
26151;SDS011;13907;53.154;8.202;2022-12-19T22:46:26;2.40;;;2.23;;
26151;SDS011;13907;53.154;8.202;2022-12-19T22:48:55;3.57;;;2.77;;
26151;SDS011;13907;53.154;8.202;2022-12-19T22:51:23;3.43;;;2.50;;
26151;SDS011;13907;53.154;8.202;2022-12-19T22:53:50;3.43;;;1.80;;
26151;SDS011;13907;53.154;8.202;2022-12-19T22:56:19;3.60;;;1.33;;
26151;SDS011;13907;53.154;8.202;2022-12-19T22:58:47;2.03;;;1.53;;
26151;SDS011;13907;53.154;8.202;2022-12-19T23:01:15;3.77;;;1.77;;
26151;SDS011;13907;53.154;8.202;2022-12-19T23:03:43;2.70;;;2.23;;
26151;SDS011;13907;53.154;8.202;2022-12-19T23:06:12;2.20;;;2.03;;
26151;SDS011;13907;53.154;8.202;2022-12-19T23:08:40;3.77;;;1.93;;
26151;SDS011;13907;53.154;8.202;2022-12-19T23:11:08;2.03;;;1.90;;
26151;SDS011;13907;53.154;8.202;2022-12-19T23:13:35;1.90;;;1.80;;
26151;SDS011;13907;53.154;8.202;2022-12-19T23:16:03;3.93;;;2.30;;
26151;SDS011;13907;53.154;8.202;2022-12-19T23:18:30;2.13;;;1.80;;
26151;SDS011;13907;53.154;8.202;2022-12-19T23:21:01;2.47;;;2.20;;
26151;SDS011;13907;53.154;8.202;2022-12-19T23:23:30;2.17;;;1.77;;
26151;SDS011;13907;53.154;8.202;2022-12-19T23:25:57;1.73;;;1.60;;
26151;SDS011;13907;53.154;8.202;2022-12-19T23:28:24;2.90;;;2.00;;
26151;SDS011;13907;53.154;8.202;2022-12-19T23:31:00;2.03;;;1.83;;
26151;SDS011;13907;53.154;8.202;2022-12-19T23:33:27;1.70;;;1.60;;
26151;SDS011;13907;53.154;8.202;2022-12-19T23:35:54;1.50;;;1.40;;
26151;SDS011;13907;53.154;8.202;2022-12-19T23:38:21;3.07;;;2.23;;
26151;SDS011;13907;53.154;8.202;2022-12-19T23:40:50;3.10;;;2.30;;
26151;SDS011;13907;53.154;8.202;2022-12-19T23:43:17;1.80;;;1.70;;
26151;SDS011;13907;53.154;8.202;2022-12-19T23:45:44;3.70;;;3.10;;
26151;SDS011;13907;53.154;8.202;2022-12-19T23:48:11;3.90;;;1.70;;
26151;SDS011;13907;53.154;8.202;2022-12-19T23:50:38;2.40;;;2.13;;
26151;SDS011;13907;53.154;8.202;2022-12-19T23:53:05;2.10;;;1.93;;
26151;SDS011;13907;53.154;8.202;2022-12-19T23:55:34;2.47;;;2.27;;
26151;SDS011;13907;53.154;8.202;2022-12-19T23:58:02;2.90;;;2.27;;
